createdAt,value
2022-10-17T00:01:56.757Z,96381.56
2022-10-17T00:04:23.519Z,96383.31
2022-10-17T00:06:50.225Z,96388.56
2022-10-17T00:09:17.079Z,96381.78
2022-10-17T00:11:43.787Z,96379.53
2022-10-17T00:14:10.513Z,96386.31
2022-10-17T00:16:37.715Z,96387.97
2022-10-17T00:19:05.532Z,96387.03
2022-10-17T00:21:32.540Z,96391.47
2022-10-17T00:23:59.624Z,96389.16
2022-10-17T00:26:26.418Z,96386.91
2022-10-17T00:28:53.776Z,96393.50
2022-10-17T00:31:21.145Z,96387.25
2022-10-17T00:33:48.035Z,96390.91
2022-10-17T00:36:15.750Z,96383.41
2022-10-17T00:38:43.653Z,96395.53
2022-10-17T00:41:11.479Z,96396.47
2022-10-17T00:43:53.518Z,96398.22
2022-10-17T00:46:20.619Z,96395.84
2022-10-17T00:48:48.835Z,96404.47
2022-10-17T00:51:15.995Z,96400.38
2022-10-17T00:53:42.993Z,96396.56
2022-10-17T00:56:09.730Z,96392.72
2022-10-17T00:58:36.482Z,96396.66
2022-10-17T01:01:05.218Z,96399.41
2022-10-17T01:03:31.997Z,96402.00
2022-10-17T01:05:59.054Z,96400.34
2022-10-17T01:08:25.896Z,96405.47
2022-10-17T01:10:55.724Z,96400.53
2022-10-17T01:13:37.631Z,96398.88
2022-10-17T01:16:04.360Z,96407.53
2022-10-17T01:18:49.838Z,96404.41
2022-10-17T01:21:16.573Z,96401.34
2022-10-17T01:23:54.544Z,96398.03
2022-10-17T01:26:40.121Z,96399.88
2022-10-17T01:29:19.827Z,96395.88
2022-10-17T01:32:00.186Z,96396.88
2022-10-17T01:34:30.032Z,96402.13
2022-10-17T01:37:06.868Z,96393.59
2022-10-17T01:39:41.625Z,96398.63
2022-10-17T01:42:32.913Z,96393.47
2022-10-17T01:45:03.687Z,96404.00
2022-10-17T01:47:32.503Z,96407.47
2022-10-17T01:50:04.935Z,96401.81
2022-10-17T01:52:41.680Z,96415.56
2022-10-17T01:55:11.615Z,96414.19
2022-10-17T01:57:40.203Z,96415.13
2022-10-17T02:00:11.350Z,96408.44
2022-10-17T02:02:42.573Z,96415.63
2022-10-17T02:05:09.493Z,96408.00
2022-10-17T02:07:36.201Z,96422.78
2022-10-17T02:10:04.811Z,96415.19
2022-10-17T02:12:37.781Z,96417.84
2022-10-17T02:15:13.368Z,96418.75
2022-10-17T02:17:45.771Z,96421.13
2022-10-17T02:20:35.783Z,96425.44
2022-10-17T02:25:49.205Z,96428.28
2022-10-17T02:28:21.352Z,96426.66
2022-10-17T02:31:17.718Z,96427.78
2022-10-17T02:33:49.180Z,96428.69
2022-10-17T02:36:19.143Z,96438.34
2022-10-17T02:38:46.689Z,96438.97
2022-10-17T02:41:16.006Z,96436.78
2022-10-17T02:43:45.541Z,96437.69
2022-10-17T02:46:22.804Z,96440.34
2022-10-17T02:48:55.520Z,96439.88
2022-10-17T02:51:42.949Z,96448.91
2022-10-17T02:54:19.055Z,96452.66
2022-10-17T02:56:59.306Z,96451.09
2022-10-17T02:59:27.250Z,96449.84
2022-10-17T03:01:54.644Z,96458.47
2022-10-17T03:04:21.469Z,96450.03
2022-10-17T03:06:49.450Z,96462.94
2022-10-17T03:09:16.239Z,96463.13
2022-10-17T03:11:42.921Z,96465.59
2022-10-17T03:14:09.659Z,96468.91
2022-10-17T03:16:36.854Z,96464.13
2022-10-17T03:19:04.662Z,96469.25
2022-10-17T03:21:32.386Z,96464.03
2022-10-17T03:23:59.311Z,96466.69
2022-10-17T03:26:26.102Z,96461.03
2022-10-17T03:28:54.538Z,96467.44
2022-10-17T03:31:22.644Z,96470.72
2022-10-17T03:33:50.781Z,96473.22
2022-10-17T03:36:19.174Z,96471.47
2022-10-17T03:38:47.172Z,96471.09
2022-10-17T03:41:14.368Z,96471.25
2022-10-17T03:43:41.180Z,96474.94
2022-10-17T03:46:08.631Z,96473.47
2022-10-17T03:48:36.846Z,96471.66
2022-10-17T03:51:06.179Z,96476.78
2022-10-17T03:53:36.654Z,96480.63
2022-10-17T03:56:11.797Z,96479.81
2022-10-17T03:58:38.809Z,96486.47
2022-10-17T04:01:06.670Z,96487.22
2022-10-17T04:03:33.644Z,96492.56
2022-10-17T04:06:03.728Z,96482.66
2022-10-17T04:08:33.468Z,96489.78
2022-10-17T04:11:07.978Z,96495.47
2022-10-17T04:13:35.235Z,96492.53
2022-10-17T04:16:06.443Z,96486.09
2022-10-17T04:18:35.507Z,96494.16
2022-10-17T04:21:03.366Z,96503.84
2022-10-17T04:23:31.080Z,96493.59
2022-10-17T04:26:04.412Z,96504.75
2022-10-17T04:28:32.124Z,96509.16
2022-10-17T04:31:03.297Z,96499.53
2022-10-17T04:33:35.633Z,96505.81
2022-10-17T04:36:04.042Z,96494.81
2022-10-17T04:38:31.914Z,96498.78
2022-10-17T04:40:58.975Z,96505.34
2022-10-17T04:43:25.918Z,96506.59
2022-10-17T04:45:52.913Z,96503.34
2022-10-17T04:48:19.716Z,96512.13
2022-10-17T04:50:56.825Z,96509.81
2022-10-17T04:53:37.361Z,96512.28
2022-10-17T04:56:08.704Z,96513.75
2022-10-17T04:58:35.913Z,96523.03
2022-10-17T05:01:06.906Z,96519.56
2022-10-17T05:03:35.074Z,96514.31
2022-10-17T05:06:06.428Z,96518.72
2022-10-17T05:08:33.294Z,96519.72
2022-10-17T05:13:51.633Z,96530.25
2022-10-17T05:16:18.851Z,96533.41
2022-10-17T05:18:52.642Z,96529.00
2022-10-17T05:21:20.473Z,96535.59
2022-10-17T05:23:47.683Z,96531.41
2022-10-17T05:26:14.723Z,96534.69
2022-10-17T05:28:41.622Z,96547.31
2022-10-17T05:31:10.021Z,96544.22
2022-10-17T05:33:37.342Z,96550.63
2022-10-17T05:36:04.772Z,96554.50
2022-10-17T05:38:32.246Z,96549.75
2022-10-17T05:41:00.170Z,96551.03
2022-10-17T05:43:27.923Z,96550.56
2022-10-17T05:45:54.918Z,96559.59
2022-10-17T05:48:23.040Z,96562.84
2022-10-17T05:50:50.654Z,96554.44
2022-10-17T05:53:17.400Z,96564.50
2022-10-17T05:55:55.166Z,96567.53
2022-10-17T05:58:22.388Z,96572.22
2022-10-17T06:01:00.416Z,96573.69
2022-10-17T06:03:28.309Z,96572.13
2022-10-17T06:05:55.333Z,96576.53
2022-10-17T06:08:22.839Z,96583.41
2022-10-17T06:10:50.712Z,96580.53
2022-10-17T06:13:17.786Z,96585.28
2022-10-17T06:17:24.740Z,96574.44
2022-10-17T06:19:51.545Z,96585.25
2022-10-17T06:22:18.368Z,96585.91
2022-10-17T06:24:46.539Z,96587.22
2022-10-17T06:27:15.101Z,96595.47
2022-10-17T06:29:41.896Z,96599.41
2022-10-17T06:32:12.596Z,96603.31
2022-10-17T06:34:42.686Z,96593.03
2022-10-17T06:37:10.270Z,96603.53
2022-10-17T06:39:39.206Z,96604.28
2022-10-17T06:42:11.331Z,96605.50
2022-10-17T06:44:46.014Z,96601.41
2022-10-17T06:47:31.539Z,96606.66
2022-10-17T06:50:02.182Z,96604.41
2022-10-17T06:52:39.609Z,96595.44
2022-10-17T06:55:32.905Z,96599.94
2022-10-17T06:58:22.837Z,96605.19
2022-10-17T07:01:06.405Z,96607.88
2022-10-17T07:03:34.483Z,96603.53
2022-10-17T07:06:01.253Z,96602.19
2022-10-17T07:08:28.713Z,96605.34
2022-10-17T07:10:55.892Z,96605.78
2022-10-17T07:13:23.204Z,96603.97
2022-10-17T07:15:50.823Z,96600.44
2022-10-17T07:18:18.200Z,96600.91
2022-10-17T07:20:52.486Z,96595.75
2022-10-17T07:23:19.224Z,96598.13
2022-10-17T07:25:46.057Z,96600.56
2022-10-17T07:28:14.036Z,96598.25
2022-10-17T07:30:41.291Z,96605.13
2022-10-17T07:33:11.495Z,96609.25
2022-10-17T07:35:41.064Z,96603.75
2022-10-17T07:38:08.344Z,96604.13
2022-10-17T07:40:35.158Z,96604.00
2022-10-17T07:43:02.164Z,96608.59
2022-10-17T07:45:29.890Z,96615.66
2022-10-17T07:47:57.844Z,96609.88
2022-10-17T07:50:25.196Z,96616.31
2022-10-17T07:52:51.913Z,96611.78
2022-10-17T07:55:18.700Z,96607.44
2022-10-17T07:57:45.392Z,96609.47
2022-10-17T08:00:12.202Z,96609.03
2022-10-17T08:02:41.710Z,96598.03
2022-10-17T08:05:08.562Z,96595.69
2022-10-17T08:07:35.272Z,96598.03
2022-10-17T08:10:02.118Z,96596.69
2022-10-17T08:12:32.589Z,96595.81
2022-10-17T08:14:59.633Z,96589.81
2022-10-17T08:17:26.472Z,96589.81
2022-10-17T08:19:53.195Z,96582.41
2022-10-17T08:22:19.942Z,96585.94
2022-10-17T08:24:46.779Z,96577.66
2022-10-17T08:27:13.964Z,96571.25
2022-10-17T08:29:40.998Z,96571.28
2022-10-17T08:32:09.942Z,96578.41
2022-10-17T08:34:36.928Z,96566.88
2022-10-17T08:37:03.689Z,96571.94
2022-10-17T08:39:30.559Z,96572.19
2022-10-17T08:42:06.142Z,96571.72
2022-10-17T08:45:05.159Z,96573.28
2022-10-17T08:47:53.387Z,96575.22
2022-10-17T08:50:42.913Z,96576.63
2022-10-17T08:53:29.707Z,96572.75
2022-10-17T08:55:57.986Z,96571.50
2022-10-17T08:58:27.960Z,96571.53
2022-10-17T09:01:13.823Z,96572.03
2022-10-17T09:03:49.706Z,96567.09
2022-10-17T09:06:19.796Z,96574.31
2022-10-17T09:08:58.033Z,96572.25
2022-10-17T09:11:42.749Z,96577.53
2022-10-17T09:14:20.560Z,96572.59
2022-10-17T09:17:06.550Z,96573.59
2022-10-17T09:19:39.141Z,96565.94
2022-10-17T09:22:23.843Z,96570.34
2022-10-17T09:25:04.069Z,96572.19
2022-10-17T09:27:37.852Z,96566.84
2022-10-17T09:30:40.052Z,96563.91
2022-10-17T09:33:34.642Z,96558.66
2022-10-17T09:36:04.375Z,96559.00
2022-10-17T09:38:36.718Z,96551.97
2022-10-17T09:41:06.587Z,96545.25
2022-10-17T09:43:39.681Z,96546.88
2022-10-17T09:46:13.529Z,96553.66
2022-10-17T09:48:44.078Z,96545.38
2022-10-17T09:51:15.080Z,96551.56
2022-10-17T09:53:51.754Z,96545.00
2022-10-17T09:56:19.469Z,96542.38
2022-10-17T09:58:46.139Z,96541.31
2022-10-17T10:01:19.556Z,96540.59
2022-10-17T10:04:08.169Z,96524.81
2022-10-17T10:06:35.189Z,96532.00
2022-10-17T10:09:06.015Z,96531.78
2022-10-17T10:12:11.327Z,96526.13
2022-10-17T10:14:39.762Z,96526.38
2022-10-17T10:17:25.715Z,96525.63
2022-10-17T10:19:52.904Z,96518.84
2022-10-17T10:22:21.025Z,96516.81
2022-10-17T10:25:06.664Z,96515.59
2022-10-17T10:30:00.443Z,96511.25
2022-10-17T10:32:29.304Z,96505.09
2022-10-17T10:34:56.509Z,96501.94
2022-10-17T10:37:26.197Z,96491.06
2022-10-17T10:40:01.187Z,96499.63
2022-10-17T10:42:30.102Z,96491.84
2022-10-17T10:45:04.776Z,96495.75
2022-10-17T10:47:32.614Z,96492.75
2022-10-17T10:50:18.023Z,96491.84
2022-10-17T10:53:04.922Z,96483.28
2022-10-17T10:55:34.768Z,96481.78
2022-10-17T10:58:04.575Z,96476.47
2022-10-17T11:00:32.946Z,96479.38
2022-10-17T11:03:04.384Z,96475.38
2022-10-17T11:05:41.314Z,96468.72
2022-10-17T11:08:14.124Z,96471.41
2022-10-17T11:10:59.725Z,96467.97
2022-10-17T11:13:30.754Z,96469.22
2022-10-17T11:16:20.227Z,96462.19
2022-10-17T11:19:04.220Z,96460.44
2022-10-17T11:21:37.987Z,96461.31
2022-10-17T11:24:10.653Z,96462.16
2022-10-17T11:26:41.684Z,96462.53
2022-10-17T11:29:12.075Z,96457.13
2022-10-17T11:31:44.972Z,96445.66
2022-10-17T11:34:25.928Z,96446.19
2022-10-17T11:36:54.796Z,96448.28
2022-10-17T11:39:30.175Z,96445.72
2022-10-17T11:42:03.540Z,96452.66
2022-10-17T11:44:38.074Z,96449.44
2022-10-17T11:47:13.372Z,96450.72
2022-10-17T11:49:51.486Z,96450.66
2022-10-17T11:52:31.864Z,96440.75
2022-10-17T11:55:16.075Z,96440.66
2022-10-17T11:57:45.904Z,96442.38
2022-10-17T12:00:49.066Z,96442.00
2022-10-17T12:03:22.533Z,96435.53
2022-10-17T12:05:52.513Z,96440.09
2022-10-17T12:08:31.579Z,96439.03
2022-10-17T12:11:07.449Z,96432.91
2022-10-17T12:13:35.544Z,96431.75
2022-10-17T12:16:20.617Z,96428.97
2022-10-17T12:19:02.689Z,96423.34
2022-10-17T12:21:49.329Z,96419.09
2022-10-17T12:24:31.726Z,96424.56
2022-10-17T12:26:58.480Z,96419.25
2022-10-17T12:29:28.850Z,96420.47
2022-10-17T12:32:09.780Z,96415.63
2022-10-17T12:34:37.350Z,96412.56
2022-10-17T12:37:04.795Z,96411.75
2022-10-17T12:39:31.589Z,96412.75
2022-10-17T12:41:58.309Z,96414.00
2022-10-17T12:44:34.952Z,96403.78
2022-10-17T12:47:10.942Z,96412.25
2022-10-17T12:49:46.998Z,96406.63
2022-10-17T12:52:16.453Z,96407.09
2022-10-17T12:55:00.188Z,96411.94
2022-10-17T12:57:34.116Z,96418.94
2022-10-17T13:00:25.067Z,96415.41
2022-10-17T13:02:53.432Z,96410.25
2022-10-17T13:05:28.583Z,96407.22
2022-10-17T13:07:55.997Z,96410.25
2022-10-17T13:10:28.071Z,96400.91
2022-10-17T13:13:01.124Z,96410.28
2022-10-17T13:15:28.035Z,96405.41
2022-10-17T13:17:58.870Z,96404.97
2022-10-17T13:20:31.314Z,96401.16
2022-10-17T13:22:59.406Z,96401.31
2022-10-17T13:25:26.844Z,96403.81
2022-10-17T13:28:03.837Z,96395.31
2022-10-17T13:30:32.523Z,96401.63
2022-10-17T13:32:59.963Z,96402.25
2022-10-17T13:35:55.416Z,96402.69
2022-10-17T13:38:16.948Z,96402.69
2022-10-17T13:40:49.997Z,96406.94
2022-10-17T13:43:19.361Z,96394.16
2022-10-17T13:45:48.531Z,96399.03
2022-10-17T13:51:27.768Z,96398.00
2022-10-17T13:53:55.846Z,96399.41
2022-10-17T13:56:30.132Z,96396.16
2022-10-17T13:59:00.575Z,96399.44
2022-10-17T14:01:29.436Z,96396.75
2022-10-17T14:04:08.285Z,96402.38
2022-10-17T14:06:45.079Z,96412.03
2022-10-17T14:09:28.331Z,96411.44
2022-10-17T14:12:03.066Z,96410.31
2022-10-17T14:14:46.095Z,96409.16
2022-10-17T14:17:26.743Z,96418.06
2022-10-17T14:20:16.103Z,96386.38
2022-10-17T14:23:04.526Z,96413.91
2022-10-17T14:25:38.141Z,96404.59
2022-10-17T14:28:08.215Z,96423.47
2022-10-17T14:30:55.881Z,96412.66
2022-10-17T14:33:27.256Z,96421.88
2022-10-17T14:35:57.586Z,96405.81
2022-10-17T14:38:25.775Z,96415.09
2022-10-17T14:41:09.761Z,96420.84
2022-10-17T14:43:42.698Z,96416.72
2022-10-17T14:46:15.977Z,96421.72
2022-10-17T14:48:43.640Z,96428.53
2022-10-17T14:51:16.970Z,96426.63
2022-10-17T14:54:02.926Z,96430.63
2022-10-17T14:56:40.597Z,96427.31
2022-10-17T14:59:12.604Z,96426.56
2022-10-17T15:01:45.039Z,96430.94
2022-10-17T15:04:11.917Z,96438.69
2022-10-17T15:06:40.740Z,96438.88
2022-10-17T15:09:07.628Z,96445.53
2022-10-17T15:11:34.460Z,96439.25
2022-10-17T15:14:01.275Z,96447.00
2022-10-17T15:16:32.049Z,96442.34
2022-10-17T15:18:58.899Z,96450.38
2022-10-17T15:21:38.464Z,96445.19
2022-10-17T15:24:07.822Z,96452.22
2022-10-17T15:26:35.314Z,96446.84
2022-10-17T15:29:02.279Z,96455.38
2022-10-17T15:31:31.690Z,96468.44
2022-10-17T15:33:58.539Z,96464.84
2022-10-17T15:36:28.824Z,96461.88
2022-10-17T15:38:58.691Z,96459.59
2022-10-17T15:41:28.518Z,96467.09
2022-10-17T15:43:56.521Z,96466.25
2022-10-17T15:46:26.601Z,96470.69
2022-10-17T15:48:54.858Z,96463.09
2022-10-17T15:51:22.376Z,96475.81
2022-10-17T15:53:49.837Z,96481.16
2022-10-17T15:56:23.670Z,96484.44
2022-10-17T15:58:51.754Z,96494.03
2022-10-17T16:01:30.133Z,96489.09
2022-10-17T16:03:57.724Z,96501.47
2022-10-17T16:06:25.710Z,96494.25
2022-10-17T16:08:52.948Z,96504.50
2022-10-17T16:11:29.090Z,96518.59
2022-10-17T16:13:59.629Z,96518.41
2022-10-17T16:16:26.660Z,96517.38
2022-10-17T16:18:53.708Z,96523.34
2022-10-17T16:21:25.502Z,96525.09
2022-10-17T16:23:52.664Z,96531.03
2022-10-17T16:26:19.865Z,96530.03
2022-10-17T16:28:46.898Z,96524.72
2022-10-17T16:31:23.590Z,96539.25
2022-10-17T16:33:52.636Z,96532.84
2022-10-17T16:36:19.736Z,96542.44
2022-10-17T16:38:47.938Z,96535.69
2022-10-17T16:41:38.196Z,96537.34
2022-10-17T16:44:08.504Z,96539.56
2022-10-17T16:46:37.541Z,96534.94
2022-10-17T16:49:05.661Z,96540.97
2022-10-17T16:51:35.887Z,96550.84
2022-10-17T16:54:04.836Z,96547.91
2022-10-17T16:56:33.090Z,96546.56
2022-10-17T16:59:01.155Z,96563.06
2022-10-17T17:01:29.572Z,96562.31
2022-10-17T17:03:57.089Z,96561.03
2022-10-17T17:06:27.329Z,96564.44
2022-10-17T17:08:55.195Z,96576.56
2022-10-17T17:11:25.135Z,96571.28
2022-10-17T17:13:52.372Z,96572.09
2022-10-17T17:16:21.975Z,96578.25
2022-10-17T17:18:51.497Z,96586.47
2022-10-17T17:21:18.382Z,96579.66
2022-10-17T17:23:45.417Z,96576.53
2022-10-17T17:26:21.737Z,96588.44
2022-10-17T17:28:49.991Z,96577.63
2022-10-17T17:31:22.523Z,96584.88
2022-10-17T17:33:50.320Z,96586.75
2022-10-17T17:36:21.241Z,96595.50
2022-10-17T17:38:49.310Z,96594.50
2022-10-17T17:41:18.256Z,96585.56
2022-10-17T17:43:46.149Z,96592.09
2022-10-17T17:46:15.259Z,96603.03
2022-10-17T17:48:43.480Z,96604.38
2022-10-17T17:51:12.141Z,96599.81
2022-10-17T17:53:40.031Z,96602.97
2022-10-17T17:56:10.607Z,96606.03
2022-10-17T17:58:37.608Z,96599.72
2022-10-17T18:01:12.366Z,96611.53
2022-10-17T18:03:41.402Z,96597.72
2022-10-17T18:06:08.558Z,96609.88
2022-10-17T18:08:36.679Z,96607.78
2022-10-17T18:11:04.856Z,96610.00
2022-10-17T18:13:32.700Z,96607.91
2022-10-17T18:16:01.630Z,96624.91
2022-10-17T18:18:30.156Z,96621.88
2022-10-17T18:21:01.076Z,96621.56
2022-10-17T18:23:27.880Z,96620.28
2022-10-17T18:26:02.471Z,96619.81
2022-10-17T18:28:30.076Z,96621.13
2022-10-17T18:31:01.025Z,96617.50
2022-10-17T18:33:27.809Z,96611.78
2022-10-17T18:35:58.137Z,96621.09
2022-10-17T18:38:26.573Z,96614.91
2022-10-17T18:41:02.865Z,96625.84
2022-10-17T18:43:29.709Z,96614.44
2022-10-17T18:46:01.199Z,96620.31
2022-10-17T18:48:28.570Z,96617.59
2022-10-17T18:50:55.402Z,96606.09
2022-10-17T18:53:22.801Z,96626.06
2022-10-17T18:55:51.315Z,96624.19
2022-10-17T18:58:21.792Z,96632.44
2022-10-17T19:00:50.373Z,96631.47
2022-10-17T19:03:18.181Z,96621.63
2022-10-17T19:05:46.393Z,96635.75
2022-10-17T19:08:15.373Z,96645.41
2022-10-17T19:10:43.230Z,96641.38
2022-10-17T19:13:11.765Z,96638.22
2022-10-17T19:15:39.554Z,96644.69
2022-10-17T19:18:06.724Z,96648.44
2022-10-17T19:20:33.633Z,96655.84
2022-10-17T19:23:00.446Z,96646.06
2022-10-17T19:25:30.479Z,96645.81
2022-10-17T19:27:58.062Z,96645.09
2022-10-17T19:30:25.150Z,96654.72
2022-10-17T19:32:52.388Z,96652.16
2022-10-17T19:35:19.219Z,96642.25
2022-10-17T19:37:46.143Z,96649.31
2022-10-17T19:40:13.844Z,96652.13
2022-10-17T19:42:40.875Z,96653.28
2022-10-17T19:45:09.038Z,96648.34
2022-10-17T19:47:36.250Z,96652.78
2022-10-17T19:52:31.210Z,96638.59
2022-10-17T19:54:58.249Z,96652.03
2022-10-17T19:57:25.970Z,96651.72
2022-10-17T19:59:55.866Z,96667.94
2022-10-17T20:02:23.564Z,96662.25
2022-10-17T20:05:00.131Z,96663.66
2022-10-17T20:07:37.190Z,96671.09
2022-10-17T20:10:04.258Z,96671.53
2022-10-17T20:12:31.374Z,96667.03
2022-10-17T20:14:58.411Z,96672.00
2022-10-17T20:17:25.726Z,96673.41
2022-10-17T20:19:52.552Z,96669.31
2022-10-17T20:22:19.389Z,96669.50
2022-10-17T20:24:46.313Z,96662.09
2022-10-17T20:27:13.177Z,96670.56
2022-10-17T20:29:40.595Z,96668.91
2022-10-17T20:32:07.452Z,96659.00
2022-10-17T20:34:35.756Z,96656.03
2022-10-17T20:37:02.749Z,96631.81
2022-10-17T20:39:30.339Z,96659.09
2022-10-17T20:41:57.149Z,96647.47
2022-10-17T20:44:23.987Z,96650.06
2022-10-17T20:47:01.209Z,96641.09
2022-10-17T20:49:30.366Z,96644.38
2022-10-17T20:51:57.456Z,96648.63
2022-10-17T20:54:24.788Z,96645.84
2022-10-17T20:56:52.216Z,96646.81
2022-10-17T20:59:22.011Z,96645.56
2022-10-17T21:01:48.952Z,96649.63
2022-10-17T21:04:44.794Z,96649.13
2022-10-17T21:07:04.207Z,96652.72
2022-10-17T21:09:31.245Z,96643.06
2022-10-17T21:11:58.491Z,96651.91
2022-10-17T21:14:25.660Z,96647.16
2022-10-17T21:16:52.913Z,96652.44
2022-10-17T21:19:28.666Z,96655.22
2022-10-17T21:21:58.443Z,96651.91
2022-10-17T21:24:25.654Z,96658.94
2022-10-17T21:26:55.781Z,96653.25
2022-10-17T21:29:23.548Z,96649.97
2022-10-17T21:31:50.639Z,96651.28
2022-10-17T21:34:21.323Z,96641.41
2022-10-17T21:36:48.491Z,96650.56
2022-10-17T21:39:16.002Z,96654.78
2022-10-17T21:41:43.916Z,96657.69
2022-10-17T21:44:14.017Z,96658.69
2022-10-17T21:46:41.500Z,96653.13
2022-10-17T21:49:09.624Z,96654.34
2022-10-17T21:51:36.432Z,96655.25
2022-10-17T21:54:05.662Z,96656.00
2022-10-17T21:56:34.841Z,96651.44
2022-10-17T21:59:02.121Z,96659.28
2022-10-17T22:01:31.845Z,96660.50
2022-10-17T22:04:02.049Z,96655.34
2022-10-17T22:06:47.098Z,96654.72
2022-10-17T22:09:18.336Z,96656.69
2022-10-17T22:11:48.313Z,96651.91
2022-10-17T22:14:18.064Z,96652.19
2022-10-17T22:16:52.248Z,96646.22
2022-10-17T22:19:22.073Z,96653.38
2022-10-17T22:21:49.743Z,96655.94
2022-10-17T22:24:18.270Z,96654.50
2022-10-17T22:26:45.788Z,96651.56
2022-10-17T22:29:12.931Z,96659.38
2022-10-17T22:31:39.902Z,96650.41
2022-10-17T22:34:07.920Z,96657.88
2022-10-17T22:36:35.254Z,96661.38
2022-10-17T22:39:04.529Z,96645.44
2022-10-17T22:41:31.356Z,96654.06
2022-10-17T22:43:58.198Z,96652.84
2022-10-17T22:46:25.832Z,96644.50
2022-10-17T22:48:53.697Z,96643.75
2022-10-17T22:51:21.339Z,96637.19
2022-10-17T22:53:48.201Z,96647.28
2022-10-17T22:56:18.623Z,96648.19
2022-10-17T22:58:46.116Z,96653.34
2022-10-17T23:01:21.943Z,96647.47
2022-10-17T23:03:49.471Z,96647.00
2022-10-17T23:06:16.440Z,96643.28
2022-10-17T23:08:43.665Z,96653.56
2022-10-17T23:11:11.236Z,96650.16
2022-10-17T23:13:39.838Z,96654.47
2022-10-17T23:16:07.282Z,96657.06
2022-10-17T23:18:34.076Z,96639.78
2022-10-17T23:21:00.838Z,96654.13
2022-10-17T23:23:27.616Z,96644.75
2022-10-17T23:25:54.493Z,96647.59
2022-10-17T23:28:21.350Z,96644.41
2022-10-17T23:30:48.194Z,96647.44
2022-10-17T23:33:15.294Z,96646.78
2022-10-17T23:35:42.624Z,96629.16
2022-10-17T23:38:09.928Z,96632.13
2022-10-17T23:40:36.949Z,96631.38
2022-10-17T23:43:04.940Z,96646.63
2022-10-17T23:45:34.801Z,96641.09
2022-10-17T23:48:05.020Z,96635.53
2022-10-17T23:50:31.808Z,96622.56
2022-10-17T23:52:58.671Z,96622.78
2022-10-17T23:55:25.575Z,96621.94
2022-10-17T23:57:53.640Z,96629.34
